Time;durP1;ratioP1;P1;durP2;ratioP2;P2;SDS_P1;SDS_P2;PMS_P1;PMS_P2;Temp;Humidity;BMP_temperature;BMP_pressure;BME280_temperature;BME280_humidity;BME280_pressure;Samples;Min_cycle;Max_cycle;Signal;HPM_P1;HPM_P2
2021/10/08 00:02:13;;;;;;;2.40;1.23;;;;;;;;;;5033043;28;20207;-81
2021/10/08 00:04:40;;;;;;;1.83;0.90;;;;;;;;;;5033238;28;20198;-81
2021/10/08 00:07:07;;;;;;;2.93;1.03;;;;;;;;;;5033177;28;20205;-81
2021/10/08 00:09:34;;;;;;;1.77;1.30;;;;;;;;;;5032943;28;20227;-79
2021/10/08 00:12:03;;;;;;;2.70;1.30;;;;;;;;;;5032746;28;20287;-81
2021/10/08 00:14:31;;;;;;;1.77;1.50;;;;;;;;;;5032969;28;20675;-81
2021/10/08 00:16:58;;;;;;;2.23;2.07;;;;;;;;;;5032848;28;20203;-81
2021/10/08 00:19:25;;;;;;;3.90;2.73;;;;;;;;;;5032611;28;20226;-80
2021/10/08 00:21:53;;;;;;;2.63;2.00;;;;;;;;;;5033168;28;20210;-80
2021/10/08 00:24:20;;;;;;;1.57;1.20;;;;;;;;;;5033069;28;20563;-81
2021/10/08 00:26:47;;;;;;;3.30;2.23;;;;;;;;;;5033031;28;20202;-81
2021/10/08 00:29:16;;;;;;;1.87;0.87;;;;;;;;;;5032538;28;20195;-80
2021/10/08 00:31:43;;;;;;;3.10;1.00;;;;;;;;;;5032586;28;20197;-80
2021/10/08 00:34:10;;;;;;;1.30;0.93;;;;;;;;;;5032641;28;20210;-80
2021/10/08 00:36:37;;;;;;;2.83;0.90;;;;;;;;;;5032845;28;20585;-81
2021/10/08 00:39:05;;;;;;;1.30;1.20;;;;;;;;;;5032658;28;20602;-80
2021/10/08 00:41:32;;;;;;;1.43;1.33;;;;;;;;;;5032324;28;20202;-80
2021/10/08 00:43:59;;;;;;;3.23;1.70;;;;;;;;;;5032695;28;20191;-80
2021/10/08 00:46:28;;;;;;;1.60;1.30;;;;;;;;;;5032349;28;20198;-81
2021/10/08 00:48:56;;;;;;;1.20;0.90;;;;;;;;;;5032264;28;20232;-80
2021/10/08 00:51:25;;;;;;;4.47;1.13;;;;;;;;;;5032141;28;20575;-80
2021/10/08 00:53:53;;;;;;;2.33;1.10;;;;;;;;;;5032627;28;20198;-80
2021/10/08 00:56:20;;;;;;;1.10;1.07;;;;;;;;;;5032199;28;20194;-80
2021/10/08 00:58:48;;;;;;;1.13;0.83;;;;;;;;;;5032140;28;20226;-80
2021/10/08 01:01:16;;;;;;;0.73;0.73;;;;;;;;;;5032135;28;20198;-80
2021/10/08 01:03:45;;;;;;;1.17;0.60;;;;;;;;;;5032495;28;20257;-80
2021/10/08 01:06:13;;;;;;;0.67;0.67;;;;;;;;;;5032357;28;20199;-80
2021/10/08 01:08:41;;;;;;;1.00;0.70;;;;;;;;;;5032268;28;20257;-80
2021/10/08 01:11:08;;;;;;;1.27;0.97;;;;;;;;;;5015273;28;20211;-81
2021/10/08 01:13:36;;;;;;;4.33;3.20;;;;;;;;;;5012365;28;20709;-81
2021/10/08 01:16:03;;;;;;;3.77;2.07;;;;;;;;;;5012151;28;20683;-80
2021/10/08 01:18:31;;;;;;;2.97;1.50;;;;;;;;;;5012187;28;20227;-80
2021/10/08 01:20:59;;;;;;;3.37;1.40;;;;;;;;;;5011950;28;20206;-80
2021/10/08 01:23:26;;;;;;;1.23;0.97;;;;;;;;;;5012615;28;20246;-80
2021/10/08 01:25:54;;;;;;;2.33;1.63;;;;;;;;;;5011992;28;20691;-80
2021/10/08 01:28:21;;;;;;;1.73;0.83;;;;;;;;;;5011895;28;20234;-80
2021/10/08 01:30:49;;;;;;;0.93;0.80;;;;;;;;;;5011751;28;20660;-80
2021/10/08 01:33:17;;;;;;;1.27;0.70;;;;;;;;;;5012482;28;20199;-80
2021/10/08 01:35:44;;;;;;;0.90;0.90;;;;;;;;;;5012086;28;20204;-80
2021/10/08 01:38:13;;;;;;;2.33;0.90;;;;;;;;;;5012363;28;20250;-80
2021/10/08 01:40:40;;;;;;;0.97;0.93;;;;;;;;;;5011620;28;20202;-80
2021/10/08 01:43:08;;;;;;;0.80;0.70;;;;;;;;;;5011962;28;20211;-81
2021/10/08 01:45:35;;;;;;;0.90;0.90;;;;;;;;;;5011883;28;20238;-80
2021/10/08 01:48:02;;;;;;;1.53;1.43;;;;;;;;;;5012070;28;20231;-80
2021/10/08 01:50:30;;;;;;;3.60;2.83;;;;;;;;;;5011458;28;20202;-80
2021/10/08 01:52:59;;;;;;;4.13;2.97;;;;;;;;;;5011885;28;20286;-80
2021/10/08 01:55:28;;;;;;;5.63;4.07;;;;;;;;;;5011805;28;20293;-81
2021/10/08 01:57:55;;;;;;;5.27;3.70;;;;;;;;;;5012084;28;20559;-81
2021/10/08 02:00:22;;;;;;;2.50;1.67;;;;;;;;;;5011954;28;20207;-81
2021/10/08 02:02:49;;;;;;;1.27;1.17;;;;;;;;;;5012408;28;20203;-81
2021/10/08 02:05:17;;;;;;;1.73;1.40;;;;;;;;;;5015505;28;20326;-81
2021/10/08 02:07:47;;;;;;;1.20;1.10;;;;;;;;;;5015658;28;20787;-81
2021/10/08 02:10:15;;;;;;;3.20;2.13;;;;;;;;;;5015392;28;20200;-81
2021/10/08 02:12:43;;;;;;;3.27;1.80;;;;;;;;;;5015518;28;20199;-80
2021/10/08 02:15:10;;;;;;;11.33;6.03;;;;;;;;;;5015583;28;20676;-80
2021/10/08 02:17:38;;;;;;;4.33;2.77;;;;;;;;;;5015548;28;20267;-81
2021/10/08 02:20:06;;;;;;;5.73;3.47;;;;;;;;;;5015021;28;20233;-81
2021/10/08 02:22:33;;;;;;;4.77;4.27;;;;;;;;;;5015626;28;20211;-81
2021/10/08 02:25:00;;;;;;;8.87;5.40;;;;;;;;;;5014713;28;20203;-82
2021/10/08 02:27:28;;;;;;;10.63;5.23;;;;;;;;;;5015614;28;20203;-82
2021/10/08 02:29:57;;;;;;;7.70;4.40;;;;;;;;;;5015031;28;20229;-83
2021/10/08 02:32:24;;;;;;;5.37;2.80;;;;;;;;;;5015122;28;20707;-83
2021/10/08 02:34:51;;;;;;;3.00;1.67;;;;;;;;;;5015029;28;20200;-83
2021/10/08 02:37:18;;;;;;;2.00;1.90;;;;;;;;;;5015320;28;20246;-83
2021/10/08 02:39:45;;;;;;;1.93;1.83;;;;;;;;;;5015050;28;20223;-84
2021/10/08 02:42:13;;;;;;;1.30;1.20;;;;;;;;;;5015014;28;20199;-83
2021/10/08 02:44:40;;;;;;;1.57;1.30;;;;;;;;;;5014915;28;20207;-83
2021/10/08 02:47:09;;;;;;;1.23;1.10;;;;;;;;;;5015161;28;20329;-83
2021/10/08 02:49:36;;;;;;;1.80;1.13;;;;;;;;;;5014662;28;20187;-83
2021/10/08 02:52:04;;;;;;;2.40;1.37;;;;;;;;;;5014700;28;20257;-83
2021/10/08 02:54:31;;;;;;;2.73;0.93;;;;;;;;;;5014696;28;20218;-83
2021/10/08 02:56:59;;;;;;;2.33;1.30;;;;;;;;;;5014725;28;20205;-82
2021/10/08 02:59:26;;;;;;;2.53;1.83;;;;;;;;;;5014458;28;20231;-83
2021/10/08 03:01:53;;;;;;;0.90;0.90;;;;;;;;;;5014673;28;20206;-83
2021/10/08 03:04:22;;;;;;;1.50;1.03;;;;;;;;;;5014500;28;20304;-82
2021/10/08 03:06:49;;;;;;;3.27;1.47;;;;;;;;;;5014376;28;20287;-83
2021/10/08 03:09:16;;;;;;;1.60;0.83;;;;;;;;;;5014428;28;20239;-83
2021/10/08 03:11:44;;;;;;;5.17;3.10;;;;;;;;;;5014555;28;20191;-83
2021/10/08 03:14:11;;;;;;;9.53;6.70;;;;;;;;;;5014192;28;20199;-83
2021/10/08 03:16:38;;;;;;;3.90;3.37;;;;;;;;;;5014327;28;20207;-82
2021/10/08 03:19:05;;;;;;;1.80;1.70;;;;;;;;;;5014238;28;20228;-83
2021/10/08 03:21:34;;;;;;;2.17;1.97;;;;;;;;;;5014180;28;20229;-82
2021/10/08 03:24:02;;;;;;;1.20;1.20;;;;;;;;;;5014648;28;20204;-82
2021/10/08 03:26:29;;;;;;;1.67;0.80;;;;;;;;;;5031552;28;20630;-82
2021/10/08 03:28:56;;;;;;;1.93;1.00;;;;;;;;;;5033721;28;20195;-82
2021/10/08 03:31:24;;;;;;;2.30;1.27;;;;;;;;;;5032339;28;20289;-82
2021/10/08 03:33:51;;;;;;;1.33;1.00;;;;;;;;;;5024305;28;20206;-82
2021/10/08 03:36:22;;;;;;;2.17;1.97;;;;;;;;;;5029893;28;20212;-81
2021/10/08 03:38:51;;;;;;;1.47;1.10;;;;;;;;;;5033565;28;20586;-81
2021/10/08 03:41:19;;;;;;;1.30;1.20;;;;;;;;;;5033515;28;20199;-82
2021/10/08 03:43:47;;;;;;;1.37;1.20;;;;;;;;;;5033044;28;20194;-82
2021/10/08 03:46:15;;;;;;;0.80;0.80;;;;;;;;;;5014552;28;20840;-81
2021/10/08 03:51:43;;;;;;;0.70;0.70;;;;;;;;;;4933016;29;20204;-82
2021/10/08 03:54:13;;;;;;;1.20;1.10;;;;;;;;;;4932588;29;20207;-82
2021/10/08 03:56:40;;;;;;;1.17;1.10;;;;;;;;;;4932857;29;20289;-82
2021/10/08 03:59:08;;;;;;;1.70;1.20;;;;;;;;;;4932073;29;20614;-82
2021/10/08 04:01:36;;;;;;;3.40;1.97;;;;;;;;;;4932612;29;20297;-82
2021/10/08 04:04:05;;;;;;;1.63;1.53;;;;;;;;;;4932634;29;20207;-83
2021/10/08 04:06:33;;;;;;;1.20;1.10;;;;;;;;;;4932818;29;20203;-83
2021/10/08 04:09:00;;;;;;;6.37;3.60;;;;;;;;;;4932542;29;20266;-84
2021/10/08 04:11:29;;;;;;;6.03;3.27;;;;;;;;;;4943615;29;20212;-82
2021/10/08 04:13:56;;;;;;;3.40;2.73;;;;;;;;;;4948772;29;20241;-83
2021/10/08 04:16:24;;;;;;;5.30;3.77;;;;;;;;;;4941629;29;20695;-83
2021/10/08 04:18:51;;;;;;;3.13;2.70;;;;;;;;;;4942824;29;20229;-80
2021/10/08 04:21:18;;;;;;;1.83;1.70;;;;;;;;;;4949542;29;20389;-83
2021/10/08 04:23:46;;;;;;;2.10;1.20;;;;;;;;;;5026727;28;20203;-83
2021/10/08 04:26:13;;;;;;;1.30;1.20;;;;;;;;;;5031459;28;20202;-82
2021/10/08 04:28:42;;;;;;;1.70;1.60;;;;;;;;;;5031713;28;20199;-82
2021/10/08 04:31:09;;;;;;;2.50;1.30;;;;;;;;;;5031240;28;20222;-83
2021/10/08 04:33:36;;;;;;;1.40;1.30;;;;;;;;;;5031549;28;20236;-82
2021/10/08 04:36:04;;;;;;;2.17;1.40;;;;;;;;;;5031478;28;20202;-82
2021/10/08 04:38:32;;;;;;;1.30;1.20;;;;;;;;;;5031398;28;20227;-82
2021/10/08 04:40:59;;;;;;;0.90;0.90;;;;;;;;;;5031355;28;20202;-83
2021/10/08 04:43:26;;;;;;;2.63;1.70;;;;;;;;;;5031459;28;20202;-83
2021/10/08 04:45:55;;;;;;;2.73;1.37;;;;;;;;;;5031341;28;20667;-83
2021/10/08 04:48:22;;;;;;;1.50;1.40;;;;;;;;;;5031115;28;20230;-83
2021/10/08 04:50:49;;;;;;;2.63;2.40;;;;;;;;;;5032059;28;20208;-83
2021/10/08 04:53:18;;;;;;;2.33;2.13;;;;;;;;;;5032629;28;20195;-83
2021/10/08 04:55:45;;;;;;;1.50;1.40;;;;;;;;;;5032619;28;20691;-82
2021/10/08 04:58:12;;;;;;;2.43;1.80;;;;;;;;;;5032045;28;20686;-83
2021/10/08 05:00:40;;;;;;;2.60;2.40;;;;;;;;;;5031455;28;20609;-84
2021/10/08 05:03:10;;;;;;;4.90;3.57;;;;;;;;;;5032385;28;20226;-83
2021/10/08 05:05:37;;;;;;;5.67;4.10;;;;;;;;;;5032195;28;20225;-83
2021/10/08 05:08:05;;;;;;;4.10;3.30;;;;;;;;;;5032239;28;20198;-83
2021/10/08 05:10:32;;;;;;;3.53;2.13;;;;;;;;;;5032405;28;20202;-83
2021/10/08 05:13:00;;;;;;;2.57;2.37;;;;;;;;;;5032094;28;20198;-83
2021/10/08 05:15:27;;;;;;;5.93;2.50;;;;;;;;;;5031679;28;20198;-83
2021/10/08 05:17:54;;;;;;;8.27;6.80;;;;;;;;;;5032005;28;20198;-83
2021/10/08 05:20:23;;;;;;;6.77;5.03;;;;;;;;;;5031617;28;20229;-83
2021/10/08 05:22:50;;;;;;;4.27;2.73;;;;;;;;;;5032282;28;20202;-83
2021/10/08 05:25:17;;;;;;;4.37;2.70;;;;;;;;;;5014805;28;20211;-83
2021/10/08 05:27:44;;;;;;;2.50;1.53;;;;;;;;;;5031940;28;20202;-83
2021/10/08 05:30:13;;;;;;;2.37;1.67;;;;;;;;;;5031579;28;20205;-83
2021/10/08 05:32:40;;;;;;;3.33;1.80;;;;;;;;;;5031977;28;20203;-82
2021/10/08 05:35:08;;;;;;;5.53;2.13;;;;;;;;;;5031668;28;20203;-83
2021/10/08 05:37:37;;;;;;;2.90;2.23;;;;;;;;;;5031790;28;20202;-83
2021/10/08 05:40:06;;;;;;;3.40;3.10;;;;;;;;;;5035054;28;20226;-82
2021/10/08 05:42:34;;;;;;;3.07;2.70;;;;;;;;;;5035915;28;20198;-83
2021/10/08 05:45:01;;;;;;;5.87;3.20;;;;;;;;;;5035757;28;20204;-82
2021/10/08 05:47:28;;;;;;;5.20;3.67;;;;;;;;;;5035674;28;20237;-83
2021/10/08 05:49:55;;;;;;;4.30;3.90;;;;;;;;;;5036016;28;20226;-83
2021/10/08 05:52:23;;;;;;;4.27;3.30;;;;;;;;;;5035743;28;20202;-82
2021/10/08 05:54:51;;;;;;;4.93;3.23;;;;;;;;;;5035511;28;20679;-83
2021/10/08 05:57:18;;;;;;;4.50;4.10;;;;;;;;;;5035670;28;20217;-83
2021/10/08 05:59:46;;;;;;;8.27;6.00;;;;;;;;;;5035428;28;20703;-83
2021/10/08 06:02:13;;;;;;;8.63;5.43;;;;;;;;;;5035743;28;20209;-83
2021/10/08 06:04:40;;;;;;;5.10;4.43;;;;;;;;;;5035120;28;20203;-82
2021/10/08 06:07:10;;;;;;;3.30;3.00;;;;;;;;;;5035425;28;20205;-83
2021/10/08 06:09:37;;;;;;;5.20;2.90;;;;;;;;;;5035229;28;20190;-82
2021/10/08 06:12:06;;;;;;;2.60;2.40;;;;;;;;;;5035348;28;20195;-83
2021/10/08 06:14:33;;;;;;;2.37;2.17;;;;;;;;;;5035264;28;20285;-82
2021/10/08 06:17:01;;;;;;;2.40;2.20;;;;;;;;;;5035486;28;20218;-83
2021/10/08 06:19:28;;;;;;;3.17;2.07;;;;;;;;;;5035216;28;20218;-82
2021/10/08 06:21:55;;;;;;;19.93;16.13;;;;;;;;;;5035518;28;20202;-82
2021/10/08 06:24:22;;;;;;;7.87;4.30;;;;;;;;;;5035255;28;20623;-82
2021/10/08 06:26:49;;;;;;;4.50;3.50;;;;;;;;;;5034902;28;20194;-83
2021/10/08 06:29:18;;;;;;;4.60;3.13;;;;;;;;;;5034878;28;20198;-83
2021/10/08 06:31:45;;;;;;;4.47;2.77;;;;;;;;;;5035350;28;20201;-83
2021/10/08 06:34:13;;;;;;;3.10;2.83;;;;;;;;;;5034929;28;20202;-82
2021/10/08 06:36:40;;;;;;;2.57;2.37;;;;;;;;;;5034893;28;20217;-83
2021/10/08 06:39:07;;;;;;;2.97;2.50;;;;;;;;;;5034661;28;20253;-82
2021/10/08 06:41:34;;;;;;;4.27;2.43;;;;;;;;;;5034744;28;20199;-83
2021/10/08 06:44:02;;;;;;;2.23;1.90;;;;;;;;;;5034665;28;20206;-82
2021/10/08 06:46:30;;;;;;;2.33;1.90;;;;;;;;;;5028202;28;20207;-82
2021/10/08 06:48:58;;;;;;;2.63;2.43;;;;;;;;;;5019021;28;20755;-82
2021/10/08 06:51:25;;;;;;;2.50;2.30;;;;;;;;;;5013332;28;20664;-82
2021/10/08 06:53:52;;;;;;;3.37;2.90;;;;;;;;;;5015017;28;20579;-82
2021/10/08 06:56:19;;;;;;;4.80;2.60;;;;;;;;;;5014504;28;20196;-82
2021/10/08 06:58:46;;;;;;;2.23;2.03;;;;;;;;;;5014699;28;20199;-83
2021/10/08 07:01:13;;;;;;;2.40;1.90;;;;;;;;;;5014441;28;20219;-82
2021/10/08 07:03:42;;;;;;;8.47;4.60;;;;;;;;;;5014684;28;20204;-82
2021/10/08 07:06:09;;;;;;;6.83;3.63;;;;;;;;;;5014159;28;20676;-82
2021/10/08 07:08:36;;;;;;;6.67;6.03;;;;;;;;;;5014523;28;20215;-82
2021/10/08 07:11:04;;;;;;;6.63;4.67;;;;;;;;;;5014609;28;20203;-82
2021/10/08 07:13:31;;;;;;;3.27;3.03;;;;;;;;;;5014739;28;20223;-83
2021/10/08 07:15:59;;;;;;;3.73;3.33;;;;;;;;;;5014122;28;20191;-82
2021/10/08 07:18:33;;;;;;;3.97;2.30;;;;;;;;;;5014734;28;20203;-83
2021/10/08 07:21:03;;;;;;;2.23;2.03;;;;;;;;;;5014111;28;20305;-82
2021/10/08 07:23:30;;;;;;;5.33;2.33;;;;;;;;;;5014326;28;20200;-82
2021/10/08 07:25:58;;;;;;;5.93;1.80;;;;;;;;;;5014128;28;20218;-82
2021/10/08 07:28:25;;;;;;;1.80;1.70;;;;;;;;;;5014603;28;20203;-82
2021/10/08 07:30:53;;;;;;;2.17;1.40;;;;;;;;;;5014240;28;20206;-82
2021/10/08 07:33:20;;;;;;;3.00;1.97;;;;;;;;;;5013820;28;20668;-82
2021/10/08 07:35:47;;;;;;;3.10;2.80;;;;;;;;;;5014129;28;20199;-82
2021/10/08 07:38:16;;;;;;;5.40;2.70;;;;;;;;;;5014401;28;20257;-82
2021/10/08 07:40:43;;;;;;;2.63;2.43;;;;;;;;;;5013985;28;20318;-82
2021/10/08 07:43:10;;;;;;;4.87;2.93;;;;;;;;;;5013845;28;20191;-82
2021/10/08 07:45:38;;;;;;;2.90;2.27;;;;;;;;;;5013986;28;20668;-82
2021/10/08 07:48:05;;;;;;;4.57;4.17;;;;;;;;;;5016280;28;20674;-82
2021/10/08 07:50:32;;;;;;;7.03;4.33;;;;;;;;;;5021711;28;20211;-82
2021/10/08 07:53:00;;;;;;;21.53;14.90;;;;;;;;;;5013600;28;20200;-82
2021/10/08 07:55:28;;;;;;;13.63;12.23;;;;;;;;;;5013873;28;20230;-82
2021/10/08 07:57:55;;;;;;;8.07;7.30;;;;;;;;;;5013580;28;20214;-82
2021/10/08 08:00:23;;;;;;;3.17;2.90;;;;;;;;;;5013084;28;20219;-83
2021/10/08 08:02:50;;;;;;;4.07;1.93;;;;;;;;;;5012873;28;20210;-82
2021/10/08 08:05:17;;;;;;;5.27;2.47;;;;;;;;;;5013403;28;20203;-82
2021/10/08 08:07:44;;;;;;;5.67;2.20;;;;;;;;;;5013455;28;20193;-82
2021/10/08 08:10:13;;;;;;;8.20;3.23;;;;;;;;;;5012985;28;20196;-82
2021/10/08 08:12:41;;;;;;;5.13;2.93;;;;;;;;;;5013930;28;20203;-82
2021/10/08 08:15:10;;;;;;;4.47;2.80;;;;;;;;;;5013242;28;20618;-82
2021/10/08 08:17:38;;;;;;;8.97;3.30;;;;;;;;;;5013425;28;20666;-82
2021/10/08 08:20:07;;;;;;;4.20;3.20;;;;;;;;;;5013045;28;20606;-82
2021/10/08 08:22:34;;;;;;;5.13;3.10;;;;;;;;;;5013259;28;20201;-82
2021/10/08 08:25:01;;;;;;;5.57;2.80;;;;;;;;;;5013000;28;20233;-82
2021/10/08 08:27:28;;;;;;;4.10;2.17;;;;;;;;;;5013221;28;20199;-82
2021/10/08 08:29:57;;;;;;;6.60;2.57;;;;;;;;;;5012750;28;20203;-82
2021/10/08 08:32:25;;;;;;;5.03;2.70;;;;;;;;;;5013056;28;20202;-82
2021/10/08 08:34:52;;;;;;;3.57;2.13;;;;;;;;;;5012801;28;20199;-82
2021/10/08 08:37:20;;;;;;;10.60;4.53;;;;;;;;;;5013009;28;20202;-82
2021/10/08 08:39:48;;;;;;;8.87;7.27;;;;;;;;;;5012701;28;20716;-82
2021/10/08 08:42:17;;;;;;;6.43;5.83;;;;;;;;;;5012812;28;20202;-82
2021/10/08 08:44:44;;;;;;;5.10;3.80;;;;;;;;;;5013011;28;20631;-82
2021/10/08 08:47:16;;;;;;;12.33;5.17;;;;;;;;;;5012523;28;20238;-82
2021/10/08 08:49:45;;;;;;;5.93;2.60;;;;;;;;;;5020264;28;20205;-82
2021/10/08 08:52:12;;;;;;;7.60;5.40;;;;;;;;;;5019619;28;20204;-82
2021/10/08 08:54:41;;;;;;;10.57;4.50;;;;;;;;;;5012179;28;20202;-82
2021/10/08 08:57:12;;;;;;;17.13;11.57;;;;;;;;;;5012515;28;20582;-83
2021/10/08 08:59:59;;;;;;;4.40;3.27;;;;;;;;;;5012332;28;20207;-82
2021/10/08 09:02:29;;;;;;;11.23;3.63;;;;;;;;;;5012010;28;20207;-81
2021/10/08 09:04:56;;;;;;;12.00;7.50;;;;;;;;;;5012313;28;20202;-82
2021/10/08 09:07:23;;;;;;;7.90;3.73;;;;;;;;;;5012372;28;20281;-82
2021/10/08 09:09:50;;;;;;;11.20;3.17;;;;;;;;;;5012187;28;20203;-82
2021/10/08 09:12:18;;;;;;;11.63;3.60;;;;;;;;;;5011971;28;20763;-82
2021/10/08 09:14:45;;;;;;;10.67;3.97;;;;;;;;;;5012407;28;20195;-82
2021/10/08 09:17:15;;;;;;;12.80;4.20;;;;;;;;;;5012487;28;20668;-82
2021/10/08 09:20:02;;;;;;;8.50;2.93;;;;;;;;;;5012715;28;20195;-82
2021/10/08 09:22:32;;;;;;;6.57;3.73;;;;;;;;;;5012527;28;20553;-82
2021/10/08 09:25:11;;;;;;;12.77;6.60;;;;;;;;;;5012296;28;20191;-82
2021/10/08 09:27:40;;;;;;;13.73;6.50;;;;;;;;;;5012424;28;20295;-83
2021/10/08 09:30:08;;;;;;;8.07;3.40;;;;;;;;;;5011992;28;20287;-82
2021/10/08 09:32:42;;;;;;;22.63;10.93;;;;;;;;;;5011920;28;20208;-83
2021/10/08 09:35:11;;;;;;;20.13;9.13;;;;;;;;;;5011966;28;20188;-83
2021/10/08 09:37:39;;;;;;;10.57;5.50;;;;;;;;;;5012087;28;20210;-83
2021/10/08 09:40:23;;;;;;;7.87;3.93;;;;;;;;;;5011811;28;20208;-83
2021/10/08 09:42:56;;;;;;;16.77;10.17;;;;;;;;;;5011852;28;20244;-86
2021/10/08 09:45:38;;;;;;;13.73;4.97;;;;;;;;;;5022366;28;20206;-87
2021/10/08 09:48:06;;;;;;;10.13;2.77;;;;;;;;;;5032253;28;20734;-88
2021/10/08 09:50:35;;;;;;;4.17;3.83;;;;;;;;;;5032635;28;20190;-88
2021/10/08 09:53:13;;;;;;;17.33;6.53;;;;;;;;;;5017793;28;20220;-90
2021/10/08 09:55:41;;;;;;;8.80;4.63;;;;;;;;;;5024874;28;20206;-90
2021/10/08 09:58:08;;;;;;;9.27;4.67;;;;;;;;;;5033178;28;20670;-90
2021/10/08 10:00:39;;;;;;;7.93;3.50;;;;;;;;;;5032812;28;20242;-91
2021/10/08 10:03:07;;;;;;;5.13;4.20;;;;;;;;;;5032571;28;20202;-91
2021/10/08 10:05:36;;;;;;;5.07;2.97;;;;;;;;;;5032754;28;20647;-88
2021/10/08 10:08:04;;;;;;;11.53;5.30;;;;;;;;;;5032279;28;20200;-89
2021/10/08 10:10:32;;;;;;;6.53;4.23;;;;;;;;;;5032458;28;20211;-87
2021/10/08 10:13:00;;;;;;;5.90;4.10;;;;;;;;;;5031992;28;20198;-87
2021/10/08 10:15:28;;;;;;;12.50;5.80;;;;;;;;;;5032066;28;20198;-87
2021/10/08 10:17:56;;;;;;;10.50;4.33;;;;;;;;;;5031570;28;20198;-87
2021/10/08 10:20:24;;;;;;;9.03;5.47;;;;;;;;;;5031714;28;20199;-85
2021/10/08 10:22:53;;;;;;;10.90;5.33;;;;;;;;;;5031255;28;20557;-86
2021/10/08 10:25:21;;;;;;;8.90;5.43;;;;;;;;;;5033437;28;20238;-86
2021/10/08 10:27:48;;;;;;;9.40;4.73;;;;;;;;;;5035397;28;20199;-86
2021/10/08 10:30:19;;;;;;;6.40;3.30;;;;;;;;;;5035567;28;20202;-86
2021/10/08 10:32:48;;;;;;;5.90;4.30;;;;;;;;;;5035281;28;20230;-86
2021/10/08 10:35:47;;;;;;;6.10;3.57;;;;;;;;;;5034998;28;20190;-86
2021/10/08 10:38:29;;;;;;;5.47;2.80;;;;;;;;;;5035196;28;20222;-86
2021/10/08 10:41:23;;;;;;;4.23;2.60;;;;;;;;;;5035209;28;20206;-86
2021/10/08 10:43:54;;;;;;;2.70;2.20;;;;;;;;;;5035251;28;20190;-86
2021/10/08 10:46:39;;;;;;;7.70;2.57;;;;;;;;;;5035546;28;20198;-86
2021/10/08 10:49:41;;;;;;;9.67;3.73;;;;;;;;;;5034830;28;20245;-87
2021/10/08 10:52:17;;;;;;;4.13;2.70;;;;;;;;;;5034972;28;20182;-86
2021/10/08 10:55:10;;;;;;;5.27;2.23;;;;;;;;;;5034706;28;20199;-86
2021/10/08 10:58:04;;;;;;;5.43;2.70;;;;;;;;;;5000747;28;20206;-86
2021/10/08 11:00:38;;;;;;;7.47;3.50;;;;;;;;;;5015485;28;20671;-87
2021/10/08 11:03:08;;;;;;;5.40;4.30;;;;;;;;;;5015181;28;20187;-86
2021/10/08 11:05:38;;;;;;;12.27;9.57;;;;;;;;;;5014873;28;20196;-87
2021/10/08 11:08:13;;;;;;;6.73;4.20;;;;;;;;;;5014940;28;20234;-86
2021/10/08 11:10:44;;;;;;;5.70;3.20;;;;;;;;;;5015056;28;20645;-86
2021/10/08 11:13:30;;;;;;;2.90;2.57;;;;;;;;;;5014948;28;20209;-86
2021/10/08 11:16:00;;;;;;;6.67;3.33;;;;;;;;;;5014557;28;20655;-86
2021/10/08 11:18:41;;;;;;;6.43;3.27;;;;;;;;;;5014907;28;20203;-86
2021/10/08 11:21:09;;;;;;;5.27;2.97;;;;;;;;;;5014350;28;20203;-86
2021/10/08 11:23:38;;;;;;;5.63;3.17;;;;;;;;;;5014593;28;20204;-86
2021/10/08 11:26:09;;;;;;;4.60;3.20;;;;;;;;;;5014097;28;20196;-85
2021/10/08 11:28:39;;;;;;;3.90;3.17;;;;;;;;;;5014406;28;20198;-85
2021/10/08 11:31:08;;;;;;;13.43;11.10;;;;;;;;;;5014479;28;20557;-85
2021/10/08 11:33:38;;;;;;;10.63;6.40;;;;;;;;;;5013983;28;20291;-85
2021/10/08 11:36:24;;;;;;;10.60;5.43;;;;;;;;;;5013156;28;20196;-86
2021/10/08 11:38:53;;;;;;;10.17;5.33;;;;;;;;;;5014270;28;20195;-85
2021/10/08 11:41:25;;;;;;;6.93;4.30;;;;;;;;;;5014027;28;20241;-85
2021/10/08 11:44:05;;;;;;;5.07;3.70;;;;;;;;;;5014087;28;20219;-85
2021/10/08 11:46:41;;;;;;;4.17;3.30;;;;;;;;;;5013986;28;20189;-85
2021/10/08 11:49:25;;;;;;;3.43;2.90;;;;;;;;;;4976002;28;20212;-85
2021/10/08 11:51:57;;;;;;;5.30;3.00;;;;;;;;;;4974990;28;20194;-85
2021/10/08 11:54:24;;;;;;;6.73;3.40;;;;;;;;;;4975107;28;20256;-85
2021/10/08 11:57:04;;;;;;;11.37;2.67;;;;;;;;;;4980558;28;20215;-85
2021/10/08 11:59:31;;;;;;;2.67;2.47;;;;;;;;;;4974693;28;20238;-85
2021/10/08 12:02:10;;;;;;;7.10;3.37;;;;;;;;;;4975115;28;20299;-85
2021/10/08 12:04:37;;;;;;;6.00;3.77;;;;;;;;;;4974538;28;20234;-85
2021/10/08 12:07:09;;;;;;;5.17;3.00;;;;;;;;;;4974613;28;20200;-85
2021/10/08 12:09:36;;;;;;;6.13;2.93;;;;;;;;;;4974424;28;20736;-84
2021/10/08 12:12:15;;;;;;;4.07;2.47;;;;;;;;;;4974520;28;20204;-85
2021/10/08 12:14:47;;;;;;;7.50;3.00;;;;;;;;;;4974616;28;20243;-85
2021/10/08 12:17:19;;;;;;;6.57;2.17;;;;;;;;;;4974702;28;20209;-84
2021/10/08 12:19:47;;;;;;;3.43;2.43;;;;;;;;;;4974270;28;20193;-85
2021/10/08 12:22:23;;;;;;;4.23;2.40;;;;;;;;;;4974657;28;20705;-84
2021/10/08 12:24:52;;;;;;;4.87;3.10;;;;;;;;;;4974167;28;20189;-85
2021/10/08 12:27:20;;;;;;;15.00;8.73;;;;;;;;;;4974084;28;20700;-85
2021/10/08 12:29:51;;;;;;;9.27;5.57;;;;;;;;;;4974189;28;20231;-85
2021/10/08 12:32:19;;;;;;;6.67;2.97;;;;;;;;;;4974615;28;20313;-86
2021/10/08 12:34:48;;;;;;;8.13;4.13;;;;;;;;;;4974365;28;20197;-85
2021/10/08 12:37:18;;;;;;;7.30;4.60;;;;;;;;;;4974728;28;20571;-85
2021/10/08 12:40:08;;;;;;;8.00;4.57;;;;;;;;;;4974344;28;20193;-86
2021/10/08 12:42:39;;;;;;;7.80;3.87;;;;;;;;;;4974534;28;20219;-87
2021/10/08 12:45:19;;;;;;;5.40;3.70;;;;;;;;;;4974323;28;20292;-87
2021/10/08 12:47:47;;;;;;;9.30;3.43;;;;;;;;;;4991111;28;20232;-87
2021/10/08 12:50:17;;;;;;;5.33;3.70;;;;;;;;;;5013243;28;20679;-87
2021/10/08 12:52:47;;;;;;;4.53;3.30;;;;;;;;;;5013262;28;20188;-87
2021/10/08 12:55:16;;;;;;;12.90;3.10;;;;;;;;;;5013302;28;20304;-87
2021/10/08 12:58:04;;;;;;;6.70;2.90;;;;;;;;;;5031818;28;20210;-87
2021/10/08 13:00:37;;;;;;;4.40;2.13;;;;;;;;;;5033246;28;20198;-87
2021/10/08 13:03:05;;;;;;;8.63;3.00;;;;;;;;;;5033242;28;20325;-87
2021/10/08 13:05:42;;;;;;;5.43;3.63;;;;;;;;;;5032889;28;20199;-87
2021/10/08 13:08:10;;;;;;;4.73;3.40;;;;;;;;;;5032771;28;20187;-88
2021/10/08 13:10:54;;;;;;;7.07;4.17;;;;;;;;;;5032800;28;20199;-87
2021/10/08 13:13:24;;;;;;;4.83;3.83;;;;;;;;;;5033278;28;20274;-88
2021/10/08 13:15:52;;;;;;;3.40;2.53;;;;;;;;;;5032994;28;20205;-88
2021/10/08 13:18:20;;;;;;;5.07;2.60;;;;;;;;;;5033303;28;20203;-88
2021/10/08 13:20:49;;;;;;;4.60;2.50;;;;;;;;;;5032973;28;20652;-87
2021/10/08 13:23:17;;;;;;;2.57;2.37;;;;;;;;;;5032409;28;20258;-87
2021/10/08 13:25:47;;;;;;;2.70;2.40;;;;;;;;;;5032907;28;20277;-87
2021/10/08 13:28:17;;;;;;;5.70;2.23;;;;;;;;;;5032495;28;20197;-87
2021/10/08 13:30:51;;;;;;;4.53;2.27;;;;;;;;;;5032485;28;20199;-87
2021/10/08 13:33:20;;;;;;;2.70;2.33;;;;;;;;;;5032448;28;20182;-87
2021/10/08 13:35:48;;;;;;;4.50;3.20;;;;;;;;;;5032424;28;20671;-87
2021/10/08 13:38:15;;;;;;;6.33;3.83;;;;;;;;;;5032663;28;20206;-87
2021/10/08 13:40:43;;;;;;;6.47;2.83;;;;;;;;;;5032552;28;20204;-88
2021/10/08 13:43:10;;;;;;;8.13;3.20;;;;;;;;;;5032204;28;20225;-87
2021/10/08 13:45:38;;;;;;;4.00;2.67;;;;;;;;;;5032711;28;20278;-87
2021/10/08 13:48:07;;;;;;;41.67;36.27;;;;;;;;;;5032495;28;20245;-87
2021/10/08 13:50:35;;;;;;;7.80;6.13;;;;;;;;;;5032397;28;20192;-87
2021/10/08 13:53:02;;;;;;;9.87;6.90;;;;;;;;;;5032188;28;20199;-87
2021/10/08 13:55:30;;;;;;;6.20;5.40;;;;;;;;;;5031816;28;20207;-86
2021/10/08 13:57:57;;;;;;;14.27;10.20;;;;;;;;;;5032107;28;20194;-87
2021/10/08 14:00:25;;;;;;;6.43;3.50;;;;;;;;;;5034748;28;20218;-87
2021/10/08 14:02:57;;;;;;;10.33;7.60;;;;;;;;;;5036054;28;20280;-86
2021/10/08 14:05:31;;;;;;;5.70;4.20;;;;;;;;;;5036165;28;20225;-86
2021/10/08 14:10:48;;;;;;;71.37;32.33;;;;;;;;;;5036070;28;20186;-86
2021/10/08 14:13:15;;;;;;;59.80;28.20;;;;;;;;;;5035965;28;20206;-86
2021/10/08 14:15:42;;;;;;;21.13;12.43;;;;;;;;;;5035527;28;20199;-86
2021/10/08 14:18:09;;;;;;;10.40;5.73;;;;;;;;;;5035742;28;20205;-86
2021/10/08 14:20:40;;;;;;;8.63;3.47;;;;;;;;;;5035768;28;20224;-86
2021/10/08 14:23:08;;;;;;;8.57;5.73;;;;;;;;;;5035458;28;20215;-86
2021/10/08 14:25:35;;;;;;;6.13;4.53;;;;;;;;;;5035179;28;20249;-86
2021/10/08 14:28:02;;;;;;;5.93;3.00;;;;;;;;;;5027857;28;20203;-86
2021/10/08 14:30:30;;;;;;;17.50;9.20;;;;;;;;;;5034762;28;20284;-86
2021/10/08 14:32:57;;;;;;;24.17;17.00;;;;;;;;;;5035259;28;20199;-86
2021/10/08 14:35:24;;;;;;;15.33;12.27;;;;;;;;;;5034817;28;20213;-86
2021/10/08 14:37:54;;;;;;;15.97;10.27;;;;;;;;;;5035075;28;20210;-86
2021/10/08 14:40:21;;;;;;;6.13;4.43;;;;;;;;;;5034992;28;20272;-86
2021/10/08 14:42:48;;;;;;;6.57;4.70;;;;;;;;;;5032772;28;20232;-87
2021/10/08 14:45:16;;;;;;;10.10;6.00;;;;;;;;;;5035474;28;20214;-88
2021/10/08 14:47:43;;;;;;;7.97;5.70;;;;;;;;;;5035108;28;20247;-87
2021/10/08 14:50:11;;;;;;;7.30;5.33;;;;;;;;;;5035303;28;20210;-88
2021/10/08 14:52:39;;;;;;;4.03;3.57;;;;;;;;;;5035028;28;20194;-85
2021/10/08 14:55:22;;;;;;;3.50;2.43;;;;;;;;;;5026849;28;20304;-88
2021/10/08 14:57:58;;;;;;;4.00;2.90;;;;;;;;;;5026982;28;20281;-88
2021/10/08 15:00:26;;;;;;;4.87;4.47;;;;;;;;;;5035537;28;20191;-87